Cockburnspath, United Kingdom
Current Conditions -  °F | °C
As of 1:50 AM on Saturday 20 Dec 2014 (Local Time) from EGQL Reporting Station
Clear Clear  
Wind Chill: 31°   Ceiling: Unl
Heat Index: 41°   Visibility: 6mi
Dew Point: 36°   Wind: 23mph
Humidity: 81%   Direction: 280°W
Pressure: 29.71"   Gusts: NA
Location:  55.93°N, 2.36°W
Report Text: EGQL 200150Z 28020KT CAVOK 05/02 Q1006 BLU
Loading
Personal Weather Stations






























Interactive Weather Map New forecast layout! Learn more

10-Day Weather Forecast

Advertisements
Track Severe Weather on mobile